createdAt,value
2022-08-17T00:00:43.930Z,50.866791
2022-08-17T00:01:26.296Z,50.866783
2022-08-17T00:02:26.985Z,50.866768
2022-08-17T00:03:24.697Z,50.866810
2022-08-17T00:04:24.695Z,50.866817
2022-08-17T00:05:24.687Z,50.866795
2022-08-17T00:06:24.697Z,50.866814
2022-08-17T00:07:25.187Z,50.866879
2022-08-17T00:08:24.654Z,50.866837
2022-08-17T00:09:24.657Z,50.866810
2022-08-17T00:10:24.651Z,50.866844
2022-08-17T00:11:24.655Z,50.866722
2022-08-17T00:12:42.984Z,50.866802
2022-08-17T00:13:26.308Z,50.866764
2022-08-17T00:14:25.244Z,50.866760
2022-08-17T00:15:24.605Z,50.866802
2022-08-17T00:16:55.879Z,50.866787
2022-08-17T00:17:25.597Z,50.866764
2022-08-17T00:19:01.268Z,50.866749
2022-08-17T00:19:25.576Z,50.866768
2022-08-17T00:20:30.538Z,50.866787
2022-08-17T00:21:25.605Z,50.866756
2022-08-17T00:22:30.857Z,50.866802
2022-08-17T00:23:25.539Z,50.866768
2022-08-17T00:24:24.530Z,50.866791
2022-08-17T00:25:25.237Z,50.866753
2022-08-17T00:26:43.529Z,50.866798
2022-08-17T00:27:25.502Z,50.866814
2022-08-17T00:28:24.499Z,50.866814
2022-08-17T00:29:24.489Z,50.866833
2022-08-17T00:30:24.501Z,50.866756
2022-08-17T00:37:25.517Z,50.866531
2022-08-17T00:38:25.501Z,50.866558
2022-08-17T00:39:25.554Z,50.866570
2022-08-17T00:40:25.479Z,50.866577
2022-08-17T00:41:25.495Z,50.866657
2022-08-17T00:42:30.804Z,50.866669
2022-08-17T00:43:27.452Z,50.866695
2022-08-17T00:44:25.449Z,50.866726
2022-08-17T00:45:25.436Z,50.866714
2022-08-17T00:46:25.444Z,50.866730
2022-08-17T00:47:25.429Z,50.866695
2022-08-17T00:48:30.203Z,50.866726
2022-08-17T00:49:26.406Z,50.866722
2022-08-17T00:50:25.409Z,50.866714
2022-08-17T00:51:25.405Z,50.866684
2022-08-17T00:52:25.381Z,50.866692
2022-08-17T00:53:26.314Z,50.866714
2022-08-17T00:54:25.359Z,50.866714
2022-08-17T00:55:25.360Z,50.866760
2022-08-17T00:56:25.369Z,50.866764
2022-08-17T00:57:25.341Z,50.866772
2022-08-17T00:58:30.394Z,50.866753
2022-08-17T00:59:26.893Z,50.866768
2022-08-17T01:00:25.326Z,50.866745
2022-08-17T01:01:25.370Z,50.866699
2022-08-17T01:02:25.298Z,50.866699
2022-08-17T01:03:25.296Z,50.866692
2022-08-17T01:04:25.279Z,50.866711
2022-08-17T01:05:25.550Z,50.866718
2022-08-17T01:06:25.268Z,50.866699
2022-08-17T01:07:25.257Z,50.866673
2022-08-17T01:08:25.249Z,50.866695
2022-08-17T01:09:25.241Z,50.866749
2022-08-17T01:11:00.145Z,50.866745
2022-08-17T01:11:26.273Z,50.866699
2022-08-17T01:12:25.220Z,50.866646
2022-08-17T01:13:25.215Z,50.866680
2022-08-17T01:14:25.819Z,50.866741
2022-08-17T01:15:26.839Z,50.866760
2022-08-17T01:16:25.194Z,50.866810
2022-08-17T01:17:25.200Z,50.866833
2022-08-17T01:18:25.182Z,50.866833
2022-08-17T01:19:25.163Z,50.866894
2022-08-17T01:20:25.183Z,50.866848
2022-08-17T01:21:25.166Z,50.866840
2022-08-17T01:22:25.140Z,50.866795
2022-08-17T01:23:25.139Z,50.866833
2022-08-17T01:24:25.120Z,50.866833
2022-08-17T01:25:25.107Z,50.866867
2022-08-17T01:26:25.906Z,50.866848
2022-08-17T01:27:25.112Z,50.866909
2022-08-17T01:28:33.630Z,50.866837
2022-08-17T01:29:26.079Z,50.866787
2022-08-17T01:30:58.066Z,50.866745
2022-08-17T01:31:26.090Z,50.866764
2022-08-17T01:32:25.055Z,50.866772
2022-08-17T01:33:25.051Z,50.866833
2022-08-17T01:34:25.038Z,50.866787
2022-08-17T01:35:26.039Z,50.866798
2022-08-17T01:36:25.017Z,50.866814
2022-08-17T01:37:25.088Z,50.866814
2022-08-17T01:38:27.175Z,50.866787
2022-08-17T01:39:25.014Z,50.866783
2022-08-17T01:40:24.988Z,50.866909
2022-08-17T01:41:25.004Z,50.866871
2022-08-17T01:42:24.983Z,50.866825
2022-08-17T01:43:24.967Z,50.866798
2022-08-17T01:44:24.968Z,50.866776
2022-08-17T01:45:24.996Z,50.866787
2022-08-17T01:46:24.938Z,50.866825
2022-08-17T01:47:25.915Z,50.866768
2022-08-17T01:48:24.923Z,50.866848
2022-08-17T01:49:24.918Z,50.866795
2022-08-17T01:50:24.904Z,50.866905
2022-08-17T01:51:24.919Z,50.866840
2022-08-17T01:52:24.892Z,50.866814
2022-08-17T01:53:25.836Z,50.866791
2022-08-17T01:54:24.876Z,50.866791
2022-08-17T01:55:27.422Z,50.866783
2022-08-17T01:56:25.865Z,50.866764
2022-08-17T01:57:24.857Z,50.866760
2022-08-17T01:58:24.834Z,50.866749
2022-08-17T01:59:24.827Z,50.866760
2022-08-17T02:00:24.823Z,50.866745
2022-08-17T02:01:24.896Z,50.866760
2022-08-17T02:02:31.245Z,50.866760
2022-08-17T02:03:25.804Z,50.866737
2022-08-17T02:04:25.415Z,50.866753
2022-08-17T02:05:24.792Z,50.866749
2022-08-17T02:06:27.525Z,50.866760
2022-08-17T02:07:26.961Z,50.866783
2022-08-17T02:08:38.934Z,50.866798
2022-08-17T02:09:29.526Z,50.866798
2022-08-17T02:10:24.761Z,50.866760
2022-08-17T02:11:25.756Z,50.866768
2022-08-17T02:12:39.444Z,50.866741
2022-08-17T02:13:25.737Z,50.866718
2022-08-17T02:14:24.719Z,50.866734
2022-08-17T02:15:24.708Z,50.866699
2022-08-17T02:16:24.698Z,50.866707
2022-08-17T02:17:24.693Z,50.866638
2022-08-17T02:18:24.687Z,50.866585
2022-08-17T02:19:24.681Z,50.866501
2022-08-17T02:20:41.402Z,50.866520
2022-08-17T02:21:25.656Z,50.866611
2022-08-17T02:22:24.646Z,50.866638
2022-08-17T02:23:24.640Z,50.866623
2022-08-17T02:24:58.944Z,50.866665
2022-08-17T02:25:25.648Z,50.866684
2022-08-17T02:26:25.940Z,50.866646
2022-08-17T02:27:24.601Z,50.866673
2022-08-17T02:28:24.601Z,50.866688
2022-08-17T02:29:24.588Z,50.866707
2022-08-17T02:31:00.835Z,50.866669
2022-08-17T02:31:25.588Z,50.866673
2022-08-17T02:32:28.108Z,50.866634
2022-08-17T02:33:24.557Z,50.866695
2022-08-17T02:34:25.550Z,50.866756
2022-08-17T02:35:24.543Z,50.866783
2022-08-17T02:36:27.403Z,50.866764
2022-08-17T02:37:25.538Z,50.866737
2022-08-17T02:38:24.516Z,50.866665
2022-08-17T02:39:24.551Z,50.866684
2022-08-17T02:40:28.619Z,50.866688
2022-08-17T02:41:25.521Z,50.866772
2022-08-17T02:42:24.485Z,50.866814
2022-08-17T02:43:24.506Z,50.866814
2022-08-17T02:44:39.494Z,50.866829
2022-08-17T02:45:25.465Z,50.866806
2022-08-17T02:46:24.484Z,50.866776
2022-08-17T02:47:24.436Z,50.866718
2022-08-17T02:48:31.186Z,50.866680
2022-08-17T02:49:25.435Z,50.866718
2022-08-17T02:50:24.420Z,50.866768
2022-08-17T02:51:24.448Z,50.866707
2022-08-17T02:52:42.927Z,50.866787
2022-08-17T02:53:25.686Z,50.866756
2022-08-17T02:54:41.303Z,50.866821
2022-08-17T02:55:25.374Z,50.866821
2022-08-17T02:56:24.382Z,50.866837
2022-08-17T02:57:24.362Z,50.866879
2022-08-17T02:58:34.498Z,50.866886
2022-08-17T02:59:25.341Z,50.866768
2022-08-17T03:00:24.368Z,50.866722
2022-08-17T03:01:24.373Z,50.866730
2022-08-17T03:02:24.318Z,50.866734
2022-08-17T03:03:24.317Z,50.866730
2022-08-17T03:04:24.303Z,50.866756
2022-08-17T03:05:24.854Z,50.866695
2022-08-17T03:06:24.308Z,50.866726
2022-08-17T03:07:24.272Z,50.866737
2022-08-17T03:08:24.278Z,50.866753
2022-08-17T03:09:24.289Z,50.866714
2022-08-17T03:10:24.252Z,50.866764
2022-08-17T03:11:24.244Z,50.866707
2022-08-17T03:12:24.252Z,50.866707
2022-08-17T03:13:24.229Z,50.866756
2022-08-17T03:14:26.382Z,50.866768
2022-08-17T03:15:24.219Z,50.866764
2022-08-17T03:16:24.206Z,50.866779
2022-08-17T03:17:24.205Z,50.866791
2022-08-17T03:18:26.067Z,50.866783
2022-08-17T03:19:24.188Z,50.866787
2022-08-17T03:20:24.181Z,50.866756
2022-08-17T03:21:24.178Z,50.866749
2022-08-17T03:22:37.230Z,50.866779
2022-08-17T03:23:25.424Z,50.866772
2022-08-17T03:24:28.619Z,50.866783
2022-08-17T03:25:24.129Z,50.866795
2022-08-17T03:26:24.119Z,50.866787
2022-08-17T03:27:25.103Z,50.866756
2022-08-17T03:28:24.113Z,50.866726
2022-08-17T03:29:24.089Z,50.866734
2022-08-17T03:30:24.086Z,50.866695
2022-08-17T03:31:24.097Z,50.866711
2022-08-17T03:32:24.103Z,50.866699
2022-08-17T03:33:24.064Z,50.866734
2022-08-17T03:34:24.866Z,50.866745
2022-08-17T03:35:24.044Z,50.866768
2022-08-17T03:36:24.870Z,50.866699
2022-08-17T03:37:24.026Z,50.866726
2022-08-17T03:38:24.032Z,50.866814
2022-08-17T03:39:24.112Z,50.866810
2022-08-17T03:40:55.403Z,50.866741
2022-08-17T03:41:25.027Z,50.866764
2022-08-17T03:42:32.435Z,50.866734
2022-08-17T03:43:24.984Z,50.866756
2022-08-17T03:44:23.994Z,50.866737
2022-08-17T03:45:23.975Z,50.866650
2022-08-17T03:46:33.877Z,50.866711
2022-08-17T03:47:24.973Z,50.866753
2022-08-17T03:48:23.944Z,50.866776
2022-08-17T03:49:23.937Z,50.866833
2022-08-17T03:50:23.942Z,50.866821
2022-08-17T03:51:24.875Z,50.866760
2022-08-17T03:52:25.915Z,50.866783
2022-08-17T03:53:23.905Z,50.866779
2022-08-17T03:54:23.912Z,50.866840
2022-08-17T03:55:32.908Z,50.866879
2022-08-17T03:56:24.920Z,50.866920
2022-08-17T03:57:23.866Z,50.866859
2022-08-17T03:58:23.878Z,50.866898
2022-08-17T03:59:23.861Z,50.866852
2022-08-17T04:00:23.848Z,50.866756
2022-08-17T04:01:23.880Z,50.866848
2022-08-17T04:02:24.477Z,50.866722
2022-08-17T04:03:23.826Z,50.866776
2022-08-17T04:04:27.734Z,50.866779
2022-08-17T04:05:23.818Z,50.866848
2022-08-17T04:06:23.810Z,50.866772
2022-08-17T04:07:23.812Z,50.866772
2022-08-17T04:08:23.791Z,50.866711
2022-08-17T04:09:23.972Z,50.866753
2022-08-17T04:10:26.477Z,50.866787
2022-08-17T04:11:24.757Z,50.866798
2022-08-17T04:12:23.746Z,50.866779
2022-08-17T04:13:24.257Z,50.866760
2022-08-17T04:14:23.744Z,50.866905
2022-08-17T04:15:23.746Z,50.866802
2022-08-17T04:16:23.736Z,50.866779
2022-08-17T04:17:23.711Z,50.866791
2022-08-17T04:18:24.384Z,50.866791
2022-08-17T04:19:24.464Z,50.866718
2022-08-17T04:20:23.698Z,50.866745
2022-08-17T04:21:23.696Z,50.866692
2022-08-17T04:22:31.377Z,50.866768
2022-08-17T04:23:24.659Z,50.867050
2022-08-17T04:24:23.683Z,50.866829
2022-08-17T04:25:23.719Z,50.866886
2022-08-17T04:26:53.761Z,50.866940
2022-08-17T04:27:24.620Z,50.866909
2022-08-17T04:28:23.617Z,50.866989
2022-08-17T04:29:23.617Z,50.867130
2022-08-17T04:30:24.003Z,50.866844
2022-08-17T04:31:23.604Z,50.866791
2022-08-17T04:33:02.212Z,50.867016
2022-08-17T04:33:25.571Z,50.866936
2022-08-17T04:34:23.579Z,50.867008
2022-08-17T04:35:23.561Z,50.866993
2022-08-17T04:36:23.583Z,50.866978
2022-08-17T04:37:23.548Z,50.866936
2022-08-17T04:38:23.536Z,50.867168
2022-08-17T04:39:23.536Z,50.866978
2022-08-17T04:40:26.044Z,50.866951
2022-08-17T04:41:23.525Z,50.866875
2022-08-17T04:42:23.499Z,50.866810
2022-08-17T04:43:23.504Z,50.866856
2022-08-17T04:44:27.211Z,50.867001
2022-08-17T04:45:24.489Z,50.866894
2022-08-17T04:46:23.465Z,50.866653
2022-08-17T04:47:23.456Z,50.867157
2022-08-17T04:48:23.449Z,50.867104
2022-08-17T04:49:24.437Z,50.867077
2022-08-17T04:50:23.434Z,50.866699
2022-08-17T04:51:23.447Z,50.866711
2022-08-17T04:52:32.331Z,50.866993
2022-08-17T04:53:24.417Z,50.867020
2022-08-17T04:54:23.410Z,50.866840
2022-08-17T04:55:23.397Z,50.866890
2022-08-17T04:56:23.439Z,50.866871
2022-08-17T04:57:23.378Z,50.866989
2022-08-17T04:58:23.375Z,50.866978
2022-08-17T04:59:23.360Z,50.866814
2022-08-17T05:00:23.354Z,50.867142
2022-08-17T05:01:24.556Z,50.866913
2022-08-17T05:02:23.336Z,50.866974
2022-08-17T05:03:23.339Z,50.867027
2022-08-17T05:04:34.859Z,50.867256
2022-08-17T05:05:24.314Z,50.867069
2022-08-17T05:06:23.330Z,50.866947
2022-08-17T05:07:25.351Z,50.866676
2022-08-17T05:08:24.290Z,50.866562
2022-08-17T05:09:23.278Z,50.866669
2022-08-17T05:10:23.309Z,50.866768
2022-08-17T05:11:24.290Z,50.866718
2022-08-17T05:12:23.292Z,50.866787
2022-08-17T05:13:23.266Z,50.866970
2022-08-17T05:14:32.341Z,50.867058
2022-08-17T05:15:24.230Z,50.866955
2022-08-17T05:16:23.228Z,50.866753
2022-08-17T05:17:23.230Z,50.866783
2022-08-17T05:18:24.452Z,50.867020
2022-08-17T05:19:23.261Z,50.866940
2022-08-17T05:20:23.188Z,50.866928
2022-08-17T05:21:23.189Z,50.867031
2022-08-17T05:22:23.199Z,50.866970
2022-08-17T05:23:23.172Z,50.866802
2022-08-17T05:24:38.943Z,50.866692
2022-08-17T05:25:25.773Z,50.866688
2022-08-17T05:26:26.898Z,50.866680
2022-08-17T05:27:23.486Z,50.866367
2022-08-17T05:28:27.460Z,50.866947
2022-08-17T05:29:23.906Z,50.867001
2022-08-17T05:30:24.117Z,50.866974
2022-08-17T05:31:23.100Z,50.867046
2022-08-17T05:32:39.406Z,50.866920
2022-08-17T05:33:24.078Z,50.866814
2022-08-17T05:34:23.075Z,50.866825
2022-08-17T05:35:23.071Z,50.866856
2022-08-17T05:36:41.933Z,50.866833
2022-08-17T05:37:24.069Z,50.866833
2022-08-17T05:38:23.052Z,50.866814
2022-08-17T05:39:23.906Z,50.866825
2022-08-17T05:40:23.045Z,50.866806
2022-08-17T05:41:23.045Z,50.866791
2022-08-17T05:42:23.046Z,50.866798
2022-08-17T05:43:23.022Z,50.866764
2022-08-17T05:44:23.008Z,50.866779
2022-08-17T05:45:54.678Z,50.866802
2022-08-17T05:46:23.986Z,50.866810
2022-08-17T05:47:22.993Z,50.866810
2022-08-17T05:48:39.208Z,50.866882
2022-08-17T05:49:23.985Z,50.866920
2022-08-17T05:50:26.048Z,50.866997
2022-08-17T05:51:23.952Z,50.867012
2022-08-17T05:52:22.947Z,50.866943
2022-08-17T05:53:22.935Z,50.866890
2022-08-17T05:54:22.939Z,50.866905
2022-08-17T05:55:22.925Z,50.866856
2022-08-17T05:56:29.840Z,50.866817
2022-08-17T05:57:23.892Z,50.866859
2022-08-17T05:58:22.885Z,50.866833
2022-08-17T05:59:22.894Z,50.866798
2022-08-17T06:00:30.166Z,50.866734
2022-08-17T06:01:23.965Z,50.866783
2022-08-17T06:02:22.852Z,50.866798
2022-08-17T06:03:22.843Z,50.866825
2022-08-17T06:04:22.838Z,50.866798
2022-08-17T06:05:22.866Z,50.866791
2022-08-17T06:06:22.829Z,50.866798
2022-08-17T06:07:22.818Z,50.866795
2022-08-17T06:08:22.802Z,50.866806
2022-08-17T06:09:27.724Z,50.866745
2022-08-17T06:10:24.794Z,50.866791
2022-08-17T06:11:22.881Z,50.866810
2022-08-17T06:12:22.782Z,50.866783
2022-08-17T06:13:23.421Z,50.866779
2022-08-17T06:14:22.754Z,50.866718
2022-08-17T06:15:22.755Z,50.866699
2022-08-17T06:16:33.521Z,50.866741
2022-08-17T06:17:23.817Z,50.866737
2022-08-17T06:18:22.727Z,50.866756
2022-08-17T06:19:22.717Z,50.866764
2022-08-17T06:20:22.710Z,50.866676
2022-08-17T06:21:23.744Z,50.866688
2022-08-17T06:22:23.708Z,50.866714
2022-08-17T06:23:22.689Z,50.866741
2022-08-17T06:24:22.675Z,50.866722
2022-08-17T06:25:22.677Z,50.866722
2022-08-17T06:26:25.915Z,50.866722
2022-08-17T06:27:23.656Z,50.866737
2022-08-17T06:28:22.646Z,50.866772
2022-08-17T06:29:22.652Z,50.866730
2022-08-17T06:30:22.631Z,50.866714
2022-08-17T06:31:22.649Z,50.866722
2022-08-17T06:32:22.625Z,50.866718
2022-08-17T06:33:22.621Z,50.866688
2022-08-17T06:34:22.640Z,50.866642
2022-08-17T06:35:22.604Z,50.866577
2022-08-17T06:36:22.612Z,50.866547
2022-08-17T06:37:22.575Z,50.866665
2022-08-17T06:38:37.796Z,50.866627
2022-08-17T06:39:23.567Z,50.866703
2022-08-17T06:40:22.556Z,50.866722
2022-08-17T06:41:22.599Z,50.866722
2022-08-17T06:42:59.889Z,50.866703
2022-08-17T06:43:23.557Z,50.866722
2022-08-17T06:44:42.207Z,50.866699
2022-08-17T06:45:23.529Z,50.866703
2022-08-17T06:46:22.506Z,50.866688
2022-08-17T06:47:28.445Z,50.866676
2022-08-17T06:48:23.499Z,50.866669
2022-08-17T06:49:22.509Z,50.866688
2022-08-17T06:50:22.478Z,50.866653
2022-08-17T06:51:22.508Z,50.866722
2022-08-17T06:52:43.419Z,50.866768
2022-08-17T06:53:23.453Z,50.866795
2022-08-17T06:54:22.452Z,50.866806
2022-08-17T06:55:22.441Z,50.866798
2022-08-17T06:56:22.447Z,50.866730
2022-08-17T06:57:22.426Z,50.866711
2022-08-17T06:58:22.419Z,50.866768
2022-08-17T06:59:22.426Z,50.866699
2022-08-17T07:00:22.416Z,50.866707
2022-08-17T07:01:22.421Z,50.866722
2022-08-17T07:02:29.087Z,50.866741
2022-08-17T07:03:23.384Z,50.866669
2022-08-17T07:04:22.390Z,50.866661
2022-08-17T07:05:22.381Z,50.866623
2022-08-17T07:06:22.357Z,50.866657
2022-08-17T07:07:22.363Z,50.866730
2022-08-17T07:08:26.401Z,50.866741
2022-08-17T07:09:23.348Z,50.866783
2022-08-17T07:10:22.334Z,50.866688
2022-08-17T07:11:22.327Z,50.866665
2022-08-17T07:12:22.309Z,50.866653
2022-08-17T07:13:22.314Z,50.866623
2022-08-17T07:14:22.300Z,50.866642
2022-08-17T07:15:22.285Z,50.866631
2022-08-17T07:16:22.279Z,50.866634
2022-08-17T07:17:22.270Z,50.866619
2022-08-17T07:18:23.262Z,50.866638
2022-08-17T07:19:22.259Z,50.866650
2022-08-17T07:20:22.262Z,50.866634
2022-08-17T07:21:26.207Z,50.866661
2022-08-17T07:22:23.295Z,50.866737
2022-08-17T07:23:22.221Z,50.866787
2022-08-17T07:24:26.106Z,50.866657
2022-08-17T07:25:23.202Z,50.866692
2022-08-17T07:26:22.212Z,50.866749
2022-08-17T07:27:22.194Z,50.866745
2022-08-17T07:28:22.186Z,50.866734
2022-08-17T07:29:22.181Z,50.866692
2022-08-17T07:30:22.188Z,50.866692
2022-08-17T07:31:22.172Z,50.866718
2022-08-17T07:32:22.167Z,50.866661
2022-08-17T07:33:22.147Z,50.866646
2022-08-17T07:34:22.140Z,50.866688
2022-08-17T07:35:22.155Z,50.866562
2022-08-17T07:36:25.416Z,50.866543
2022-08-17T07:37:23.118Z,50.866577
2022-08-17T07:38:24.661Z,50.866585
2022-08-17T07:39:22.108Z,50.866577
2022-08-17T07:40:22.171Z,50.866608
2022-08-17T07:41:22.088Z,50.866604
2022-08-17T07:42:22.093Z,50.866634
2022-08-17T07:43:23.614Z,50.866585
2022-08-17T07:44:22.064Z,50.866611
2022-08-17T07:45:22.061Z,50.866619
2022-08-17T07:46:22.056Z,50.866543
2022-08-17T07:47:22.062Z,50.866543
2022-08-17T07:48:22.041Z,50.866604
2022-08-17T07:49:22.017Z,50.866596
2022-08-17T07:50:25.788Z,50.866604
2022-08-17T07:51:23.030Z,50.866592
2022-08-17T07:52:48.211Z,50.866589
2022-08-17T07:53:22.991Z,50.866589
2022-08-17T07:54:21.987Z,50.866596
2022-08-17T07:55:21.990Z,50.866657
2022-08-17T07:56:21.969Z,50.866783
2022-08-17T07:57:24.359Z,50.866749
2022-08-17T07:58:22.960Z,50.866566
2022-08-17T07:59:23.693Z,50.866535
2022-08-17T08:00:23.809Z,50.866596
2022-08-17T08:01:22.993Z,50.866684
2022-08-17T08:02:22.053Z,50.866711
2022-08-17T08:03:22.107Z,50.866692
2022-08-17T08:04:43.240Z,50.866653
2022-08-17T08:05:30.749Z,50.866673
2022-08-17T08:06:22.897Z,50.866631
2022-08-17T08:07:21.875Z,50.866669
2022-08-17T08:08:22.576Z,50.866680
2022-08-17T08:09:21.867Z,50.866680
2022-08-17T08:10:21.918Z,50.866695
2022-08-17T08:11:21.853Z,50.866741
2022-08-17T08:12:22.554Z,50.866726
2022-08-17T08:13:21.849Z,50.866795
2022-08-17T08:14:21.831Z,50.866714
2022-08-17T08:15:22.821Z,50.866711
2022-08-17T08:16:21.815Z,50.866680
2022-08-17T08:17:22.555Z,50.866619
2022-08-17T08:18:54.423Z,50.866604
2022-08-17T08:19:22.800Z,50.866463
2022-08-17T08:20:51.213Z,50.866451
2022-08-17T08:21:22.816Z,50.866364
2022-08-17T08:22:21.791Z,50.866188
2022-08-17T08:23:21.766Z,50.865993
2022-08-17T08:24:21.758Z,50.865894
2022-08-17T08:25:21.765Z,50.865871
2022-08-17T08:26:21.748Z,50.865974
2022-08-17T08:27:21.729Z,50.865932
2022-08-17T08:28:21.715Z,50.865879
2022-08-17T08:29:21.724Z,50.865894
2022-08-17T08:30:21.733Z,50.865894
2022-08-17T08:31:21.690Z,50.865894
2022-08-17T08:32:21.775Z,50.865894
2022-08-17T08:33:21.677Z,50.865894
2022-08-17T08:34:59.086Z,50.865894
2022-08-17T08:35:22.701Z,50.865894
2022-08-17T08:37:14.670Z,50.865894
2022-08-17T08:37:32.644Z,50.865894
2022-08-17T08:38:23.639Z,50.865894
2022-08-17T08:39:21.637Z,50.865894
2022-08-17T08:40:21.629Z,50.865894
2022-08-17T08:41:21.622Z,50.865894
2022-08-17T08:42:21.629Z,50.865894
2022-08-17T08:43:21.597Z,50.865894
2022-08-17T08:44:21.606Z,50.866844
2022-08-17T08:45:22.625Z,50.866703
2022-08-17T08:46:21.583Z,50.866760
2022-08-17T08:47:21.570Z,50.866810
2022-08-17T08:48:45.874Z,50.866749
2022-08-17T08:49:38.998Z,50.866722
2022-08-17T08:50:37.154Z,50.866776
2022-08-17T08:51:22.552Z,50.866810
2022-08-17T08:52:21.529Z,50.866726
2022-08-17T08:53:21.545Z,50.866810
2022-08-17T08:54:26.580Z,50.866787
2022-08-17T08:55:22.525Z,50.866718
2022-08-17T08:56:21.525Z,50.866650
2022-08-17T08:57:26.709Z,50.866749
2022-08-17T08:58:32.068Z,50.866791
2022-08-17T08:59:22.499Z,50.866619
2022-08-17T09:00:21.479Z,50.866711
2022-08-17T09:01:21.495Z,50.866772
2022-08-17T09:02:21.500Z,50.866760
2022-08-17T09:03:31.567Z,50.866798
2022-08-17T09:04:25.448Z,50.866779
2022-08-17T09:05:22.454Z,50.866863
2022-08-17T09:06:32.469Z,50.866848
2022-08-17T09:07:22.424Z,50.866848
2022-08-17T09:08:21.438Z,50.866821
2022-08-17T09:09:21.466Z,50.866817
2022-08-17T09:10:21.432Z,50.866737
2022-08-17T09:11:21.401Z,50.866760
2022-08-17T09:12:21.396Z,50.866837
2022-08-17T09:13:21.380Z,50.866753
2022-08-17T09:14:28.658Z,50.866787
2022-08-17T09:15:22.373Z,50.866856
2022-08-17T09:16:21.355Z,50.866817
2022-08-17T09:17:21.352Z,50.866776
2022-08-17T09:18:59.792Z,50.866756
2022-08-17T09:19:23.352Z,50.866776
2022-08-17T09:20:28.319Z,50.866837
2022-08-17T09:21:22.358Z,50.866810
2022-08-17T09:22:21.327Z,50.866756
2022-08-17T09:23:21.321Z,50.866821
2022-08-17T09:24:21.302Z,50.866814
2022-08-17T09:25:21.289Z,50.866776
2022-08-17T09:26:21.279Z,50.866772
2022-08-17T09:27:22.099Z,50.866714
2022-08-17T09:28:21.278Z,50.866726
2022-08-17T09:29:21.257Z,50.866711
2022-08-17T09:30:21.266Z,50.866753
2022-08-17T09:31:21.356Z,50.866699
2022-08-17T09:32:21.241Z,50.866722
2022-08-17T09:33:21.255Z,50.866776
2022-08-17T09:34:21.232Z,50.866764
2022-08-17T09:35:22.237Z,50.866787
2022-08-17T09:36:21.208Z,50.866867
2022-08-17T09:37:21.207Z,50.866821
2022-08-17T09:38:21.212Z,50.866776
2022-08-17T09:39:21.203Z,50.866798
2022-08-17T09:40:21.257Z,50.866806
2022-08-17T09:41:21.183Z,50.866722
2022-08-17T09:42:21.189Z,50.866711
2022-08-17T09:43:21.173Z,50.866745
2022-08-17T09:44:23.125Z,50.866776
2022-08-17T09:45:21.152Z,50.866787
2022-08-17T09:46:21.140Z,50.866756
2022-08-17T09:47:21.133Z,50.866741
2022-08-17T09:48:22.158Z,50.866764
2022-08-17T09:49:25.137Z,50.866737
2022-08-17T09:51:05.377Z,50.866741
2022-08-17T09:51:22.096Z,50.866749
2022-08-17T09:52:21.089Z,50.866745
2022-08-17T09:53:21.086Z,50.866776
2022-08-17T09:54:38.575Z,50.866726
2022-08-17T09:55:23.068Z,50.866714
2022-08-17T09:56:21.058Z,50.866734
2022-08-17T09:57:36.091Z,50.866772
2022-08-17T09:58:23.047Z,50.866699
2022-08-17T09:59:22.042Z,50.866741
2022-08-17T10:00:21.057Z,50.866768
2022-08-17T10:01:21.118Z,50.866802
2022-08-17T10:02:21.035Z,50.866772
2022-08-17T10:03:21.007Z,50.866829
2022-08-17T10:04:22.118Z,50.866817
2022-08-17T10:05:20.985Z,50.866745
2022-08-17T10:06:22.205Z,50.866760
2022-08-17T10:07:22.631Z,50.866795
2022-08-17T10:08:21.842Z,50.866810
2022-08-17T10:09:20.983Z,50.866787
2022-08-17T10:10:20.981Z,50.866795
2022-08-17T10:11:20.943Z,50.866779
2022-08-17T10:12:21.937Z,50.866905
2022-08-17T10:13:21.947Z,50.866943
2022-08-17T10:14:37.318Z,50.867046
2022-08-17T10:15:23.621Z,50.867176
2022-08-17T10:16:21.010Z,50.867138
2022-08-17T10:17:20.912Z,50.867050
2022-08-17T10:18:20.912Z,50.866951
2022-08-17T10:19:20.915Z,50.866978
2022-08-17T10:20:20.913Z,50.866802
2022-08-17T10:21:20.903Z,50.866467
2022-08-17T10:22:35.120Z,50.866592
2022-08-17T10:23:21.912Z,50.866600
2022-08-17T10:24:21.496Z,50.866520
2022-08-17T10:25:20.907Z,50.866646
2022-08-17T10:26:20.857Z,50.866676
2022-08-17T10:27:20.835Z,50.866695
2022-08-17T10:28:22.820Z,50.866749
2022-08-17T10:29:21.868Z,50.866753
2022-08-17T10:30:20.818Z,50.866756
2022-08-17T10:31:36.918Z,50.866833
2022-08-17T10:32:23.623Z,50.866844
2022-08-17T10:33:20.803Z,50.866909
2022-08-17T10:34:21.564Z,50.866840
2022-08-17T10:35:21.601Z,50.866810
2022-08-17T10:36:20.771Z,50.866772
2022-08-17T10:37:20.770Z,50.866776
2022-08-17T10:38:24.344Z,50.866798
2022-08-17T10:39:20.810Z,50.866833
2022-08-17T10:40:20.823Z,50.866810
2022-08-17T10:41:20.749Z,50.866768
2022-08-17T10:42:32.549Z,50.866783
2022-08-17T10:43:21.748Z,50.866756
2022-08-17T10:44:39.320Z,50.866909
2022-08-17T10:45:21.706Z,50.866886
2022-08-17T10:46:30.845Z,50.866833
2022-08-17T10:47:21.673Z,50.866879
2022-08-17T10:48:20.681Z,50.866859
2022-08-17T10:49:20.673Z,50.867020
2022-08-17T10:50:20.741Z,50.866871
2022-08-17T10:51:20.662Z,50.866817
2022-08-17T10:52:20.707Z,50.866997
2022-08-17T10:53:20.635Z,50.867035
2022-08-17T10:54:20.685Z,50.867054
2022-08-17T10:55:21.138Z,50.866879
2022-08-17T10:56:20.612Z,50.866734
2022-08-17T10:57:20.732Z,50.866993
2022-08-17T10:58:21.594Z,50.867001
2022-08-17T10:59:21.121Z,50.866718
2022-08-17T11:00:25.540Z,50.866714
2022-08-17T11:01:23.626Z,50.866879
2022-08-17T11:02:20.581Z,50.866825
2022-08-17T11:03:21.165Z,50.866844
2022-08-17T11:04:20.563Z,50.866856
2022-08-17T11:05:21.156Z,50.866844
2022-08-17T11:06:20.584Z,50.866955
2022-08-17T11:07:20.558Z,50.866802
2022-08-17T11:08:20.584Z,50.866859
2022-08-17T11:09:20.570Z,50.866924
2022-08-17T11:10:20.511Z,50.866859
2022-08-17T11:16:27.563Z,50.866455
2022-08-17T11:17:27.556Z,50.866596
2022-08-17T11:18:27.597Z,50.866722
2022-08-17T11:19:27.573Z,50.866718
2022-08-17T11:20:27.537Z,50.866703
2022-08-17T11:21:27.525Z,50.866730
2022-08-17T11:22:32.757Z,50.866726
2022-08-17T11:23:29.496Z,50.866642
2022-08-17T11:24:27.540Z,50.866676
2022-08-17T11:25:27.503Z,50.866718
2022-08-17T11:26:27.476Z,50.866726
2022-08-17T11:27:27.488Z,50.866703
2022-08-17T11:28:27.539Z,50.866718
2022-08-17T11:29:27.500Z,50.866669
2022-08-17T11:30:27.454Z,50.866764
2022-08-17T11:31:38.607Z,50.866783
2022-08-17T11:32:28.450Z,50.866894
2022-08-17T11:33:27.478Z,50.866959
2022-08-17T11:34:27.459Z,50.866814
2022-08-17T11:35:28.139Z,50.866707